Time;durP1;ratioP1;P1;durP2;ratioP2;P2;SDS_P1;SDS_P2;PMS_P1;PMS_P2;Temp;Humidity;BMP_temperature;BMP_pressure;BME280_temperature;BME280_humidity;BME280_pressure;Samples;Min_cycle;Max_cycle;Signal;HPM_P1;HPM_P2
2021/09/10 00:00:40;;;;;;;4.78;3.90;;;;;;;20.10;45.03;95330.88;4989273;28;20848;-70
2021/09/10 00:03:05;;;;;;;6.00;3.72;;;;;;;20.08;45.04;95319.50;4987807;28;20161;-70
2021/09/10 00:05:31;;;;;;;6.30;3.78;;;;;;;20.07;45.11;95322.44;4983590;28;20043;-70
2021/09/10 00:07:56;;;;;;;6.10;3.80;;;;;;;20.00;45.66;95325.31;4982764;28;20045;-70
2021/09/10 00:10:22;;;;;;;5.60;3.90;;;;;;;19.98;45.34;95330.13;4980829;28;20065;-70
2021/09/10 00:12:47;;;;;;;5.57;4.18;;;;;;;19.93;45.47;95327.34;4983660;28;20054;-70
2021/09/10 00:15:13;;;;;;;4.72;3.60;;;;;;;19.89;45.46;95327.03;4987627;28;20081;-70
2021/09/10 00:17:38;;;;;;;6.28;3.95;;;;;;;19.74;45.81;95324.88;4977399;28;20033;-70
2021/09/10 00:20:04;;;;;;;5.28;3.80;;;;;;;19.89;45.50;95332.41;4988948;28;20049;-70
2021/09/10 00:22:30;;;;;;;6.50;3.80;;;;;;;19.89;45.82;95326.19;4988360;28;20030;-70
2021/09/10 00:24:55;;;;;;;6.00;3.97;;;;;;;19.92;45.52;95325.72;4988917;28;20141;-70
2021/09/10 00:27:21;;;;;;;7.03;3.88;;;;;;;19.91;45.90;95330.28;4988233;28;20041;-70
2021/09/10 00:29:48;;;;;;;7.38;4.00;;;;;;;19.81;46.03;95325.53;4987506;28;20034;-70
2021/09/10 00:32:13;;;;;;;5.53;4.10;;;;;;;19.76;45.89;95327.31;4986545;28;20061;-70
2021/09/10 00:34:39;;;;;;;8.60;4.40;;;;;;;19.67;46.31;95329.59;4988060;28;20803;-70
2021/09/10 00:37:04;;;;;;;7.25;4.15;;;;;;;19.66;46.43;95327.97;4988433;28;20027;-70
2021/09/10 00:39:30;;;;;;;10.82;4.40;;;;;;;19.63;46.17;95333.84;4986479;28;20081;-70
2021/09/10 00:41:55;;;;;;;8.57;4.80;;;;;;;19.57;46.66;95332.94;4987307;28;20031;-70
2021/09/10 00:44:20;;;;;;;6.88;5.05;;;;;;;19.50;47.10;95333.09;4980933;28;20065;-70
2021/09/10 00:46:46;;;;;;;7.15;4.70;;;;;;;19.40;46.94;95330.19;4969742;28;20058;-70
2021/09/10 00:49:11;;;;;;;7.82;4.53;;;;;;;19.44;46.68;95336.75;4986782;28;20026;-70
2021/09/10 00:51:37;;;;;;;6.20;4.28;;;;;;;19.28;47.15;95324.88;4957309;28;20401;-70
2021/09/10 00:54:03;;;;;;;6.90;4.25;;;;;;;19.35;47.27;95330.94;4960965;28;20720;-70
2021/09/10 00:56:28;;;;;;;8.23;4.07;;;;;;;19.42;47.06;95328.09;4986400;28;20698;-70
2021/09/10 00:58:56;;;;;;;6.63;4.20;;;;;;;19.34;46.95;95326.59;4970092;28;20030;-70
2021/09/10 01:01:22;;;;;;;7.80;4.20;;;;;;;19.40;46.97;95327.50;4988493;28;20038;-70
2021/09/10 01:03:48;;;;;;;6.65;4.20;;;;;;;19.32;47.10;95326.84;4988554;28;20061;-70
2021/09/10 01:06:13;;;;;;;7.93;4.13;;;;;;;19.46;47.09;95326.53;4987463;28;20112;-70
2021/09/10 01:08:39;;;;;;;8.85;4.50;;;;;;;19.32;47.15;95317.94;4986103;28;20038;-70
2021/09/10 01:11:05;;;;;;;7.15;4.40;;;;;;;19.37;47.25;95322.59;4969939;28;20542;-70
2021/09/10 01:13:30;;;;;;;5.75;3.97;;;;;;;19.38;46.72;95327.75;4963219;28;20288;-70
2021/09/10 01:15:56;;;;;;;7.68;4.00;;;;;;;19.31;47.11;95324.41;4966151;28;20030;-70
2021/09/10 01:18:21;;;;;;;8.90;4.55;;;;;;;19.22;47.77;95329.31;4985739;28;20423;-69
2021/09/10 01:20:48;;;;;;;6.70;4.30;;;;;;;19.31;47.39;95321.69;4988135;28;20031;-70
2021/09/10 01:23:13;;;;;;;7.27;4.60;;;;;;;19.25;47.39;95328.00;4986330;28;20038;-70
2021/09/10 01:25:39;;;;;;;6.75;4.10;;;;;;;19.04;47.67;95331.13;4986795;28;20834;-70
2021/09/10 01:28:04;;;;;;;6.90;4.22;;;;;;;19.08;47.99;95318.00;4985616;28;20050;-70
2021/09/10 01:30:31;;;;;;;9.85;4.47;;;;;;;18.97;48.44;95322.38;4978762;28;20039;-70
2021/09/10 01:33:01;;;;;;;9.23;4.65;;;;;;;19.13;47.97;95325.34;4986565;28;20113;-70
2021/09/10 01:35:27;;;;;;;5.47;4.22;;;;;;;19.11;47.79;95327.47;4969893;28;20046;-70
2021/09/10 01:37:55;;;;;;;7.47;4.63;;;;;;;19.04;47.99;95320.34;4987915;28;20056;-70
2021/09/10 01:40:21;;;;;;;7.13;4.38;;;;;;;18.89;48.67;95322.72;4969456;28;20042;-70
2021/09/10 01:42:47;;;;;;;8.02;4.47;;;;;;;18.76;48.52;95318.44;4986146;28;20400;-69
2021/09/10 01:45:12;;;;;;;6.88;4.55;;;;;;;18.77;48.58;95315.47;4987972;28;20045;-69
2021/09/10 01:47:38;;;;;;;7.60;4.80;;;;;;;18.23;49.77;95321.88;4985944;28;20471;-69
2021/09/10 01:50:04;;;;;;;8.07;4.60;;;;;;;18.46;49.31;95306.72;4986153;28;20042;-70
2021/09/10 01:52:29;;;;;;;6.85;4.50;;;;;;;18.10;49.56;95314.00;4969783;28;20062;-70
2021/09/10 01:54:55;;;;;;;6.47;4.38;;;;;;;18.20;49.58;95313.41;4985689;28;20064;-70
2021/09/10 01:57:20;;;;;;;8.30;4.55;;;;;;;16.74;53.03;95326.63;4953989;28;20041;-70
2021/09/10 01:59:46;;;;;;;8.25;4.38;;;;;;;17.44;51.38;95323.69;4989477;28;20031;-70
2021/09/10 02:02:11;;;;;;;9.73;4.25;;;;;;;17.08;52.10;95325.41;4991251;28;20030;-70
2021/09/10 02:04:37;;;;;;;8.05;4.18;;;;;;;17.56;50.78;95315.66;4989155;28;20753;-70
2021/09/10 02:07:04;;;;;;;5.97;3.90;;;;;;;17.88;49.75;95311.91;4973346;28;20484;-70
2021/09/10 02:09:29;;;;;;;5.47;4.15;;;;;;;17.78;50.20;95309.75;4988115;28;20019;-70
2021/09/10 02:11:54;;;;;;;7.22;4.18;;;;;;;18.15;48.72;95317.63;4978854;28;20520;-70
2021/09/10 02:14:20;;;;;;;5.05;4.20;;;;;;;18.15;48.95;95316.84;4991016;28;20506;-70
2021/09/10 02:16:45;;;;;;;7.22;4.32;;;;;;;17.90;49.49;95316.00;4988780;28;20038;-70
2021/09/10 02:19:11;;;;;;;6.07;4.03;;;;;;;17.92;49.44;95313.88;4988829;28;20037;-69
2021/09/10 02:21:37;;;;;;;6.75;4.05;;;;;;;18.10;48.91;95324.78;4989355;28;20762;-70
2021/09/10 02:24:04;;;;;;;5.93;3.72;;;;;;;18.13;48.63;95321.63;4972834;28;20615;-70
2021/09/10 02:26:29;;;;;;;5.80;4.30;;;;;;;17.86;49.51;95324.75;4988848;28;20038;-70
2021/09/10 02:28:55;;;;;;;5.97;3.60;;;;;;;18.08;48.57;95311.53;4990644;28;20042;-70
2021/09/10 02:31:20;;;;;;;5.70;3.90;;;;;;;18.05;49.22;95315.53;4990213;28;20523;-70
2021/09/10 02:33:46;;;;;;;4.72;3.70;;;;;;;18.19;48.52;95318.00;4994808;28;20072;-70
2021/09/10 02:36:11;;;;;;;9.45;4.28;;;;;;;17.84;49.53;95316.88;4989154;28;20038;-70
2021/09/10 02:38:37;;;;;;;5.53;4.13;;;;;;;16.80;52.21;95321.41;4988698;28;20464;-69
2021/09/10 02:41:03;;;;;;;7.45;4.25;;;;;;;17.88;49.42;95320.78;4972842;28;20886;-70
2021/09/10 02:43:28;;;;;;;5.15;3.97;;;;;;;17.96;49.32;95322.31;4972145;28;20043;-70
2021/09/10 02:45:54;;;;;;;6.95;4.15;;;;;;;18.07;48.96;95328.75;4990591;28;20046;-70
2021/09/10 02:48:19;;;;;;;7.75;4.28;;;;;;;17.96;49.19;95324.19;4989453;28;20034;-70
2021/09/10 02:50:44;;;;;;;6.25;4.03;;;;;;;18.02;48.98;95328.66;4989878;28;20041;-70
2021/09/10 02:53:10;;;;;;;5.85;3.97;;;;;;;18.05;49.02;95329.00;4988800;28;20037;-70
2021/09/10 02:55:35;;;;;;;8.45;4.30;;;;;;;17.72;49.48;95333.03;4965034;28;20073;-70
2021/09/10 02:58:01;;;;;;;4.65;3.55;;;;;;;17.60;50.01;95329.47;4984545;28;20022;-70
2021/09/10 03:00:26;;;;;;;5.43;3.90;;;;;;;17.81;49.21;95322.72;4981320;28;20471;-70
2021/09/10 03:02:52;;;;;;;5.57;3.80;;;;;;;17.90;49.36;95318.69;4965669;28;20458;-69
2021/09/10 03:05:17;;;;;;;7.75;4.03;;;;;;;17.61;50.03;95326.53;4988545;28;20042;-70
2021/09/10 03:07:42;;;;;;;5.85;4.20;;;;;;;17.78;49.44;95331.28;4989281;28;20043;-70
2021/09/10 03:10:08;;;;;;;6.10;3.97;;;;;;;18.02;49.23;95326.75;4981567;28;20034;-70
2021/09/10 03:12:35;;;;;;;4.55;3.60;;;;;;;18.13;48.51;95324.31;4983627;28;20396;-70
2021/09/10 03:15:01;;;;;;;6.68;4.20;;;;;;;17.86;49.33;95322.91;4972073;28;20483;-70
2021/09/10 03:17:27;;;;;;;7.15;3.90;;;;;;;17.90;49.17;95317.84;4972211;28;20033;-70
2021/09/10 03:19:52;;;;;;;7.05;3.90;;;;;;;17.88;49.54;95317.28;4989425;28;20046;-70
2021/09/10 03:22:17;;;;;;;6.13;3.72;;;;;;;17.94;48.96;95318.22;4988441;28;20026;-70
2021/09/10 03:24:43;;;;;;;4.65;3.65;;;;;;;18.10;48.74;95311.31;4987945;28;20042;-70
2021/09/10 03:27:08;;;;;;;6.40;3.60;;;;;;;18.29;47.95;95318.22;4971699;28;20027;-70
2021/09/10 03:29:34;;;;;;;5.32;3.85;;;;;;;18.46;47.50;95309.41;4990054;28;20028;-70
2021/09/10 03:31:59;;;;;;;5.63;3.72;;;;;;;18.51;47.58;95311.41;4988032;28;20518;-70
2021/09/10 03:34:28;;;;;;;8.75;4.00;;;;;;;18.51;47.40;95314.94;4989413;28;20391;-70
2021/09/10 03:36:54;;;;;;;8.15;3.80;;;;;;;18.52;47.52;95310.34;4989426;28;20121;-70
2021/09/10 03:39:19;;;;;;;5.90;4.15;;;;;;;18.50;47.67;95310.59;4987684;28;20049;-70
2021/09/10 03:41:45;;;;;;;8.32;3.80;;;;;;;18.36;48.00;95315.41;4983174;28;20030;-70
2021/09/10 03:44:10;;;;;;;5.57;4.00;;;;;;;18.58;47.47;95314.00;4989391;28;20411;-70
2021/09/10 03:46:35;;;;;;;6.75;4.22;;;;;;;18.42;48.14;95316.34;4975732;28;20034;-70
2021/09/10 03:49:01;;;;;;;6.75;5.30;;;;;;;17.33;51.08;95321.81;4987915;28;20038;-70
2021/09/10 03:51:26;;;;;;;5.53;3.70;;;;;;;17.89;49.73;95317.06;4989134;28;20098;-70
2021/09/10 03:53:52;;;;;;;4.82;3.78;;;;;;;18.28;48.56;95316.59;4988303;28;20038;-70
2021/09/10 03:56:17;;;;;;;5.13;3.53;;;;;;;18.56;47.60;95311.53;4987417;28;20519;-70
2021/09/10 03:58:44;;;;;;;5.25;3.65;;;;;;;18.63;47.80;95309.53;4987817;28;20042;-70
2021/09/10 04:01:10;;;;;;;6.03;4.07;;;;;;;18.68;47.43;95306.13;4964068;28;20099;-70
2021/09/10 04:03:35;;;;;;;4.47;3.83;;;;;;;18.74;47.58;95312.47;4969054;28;20533;-70
2021/09/10 04:06:01;;;;;;;7.57;3.80;;;;;;;18.73;47.27;95306.22;4982605;28;20031;-70
2021/09/10 04:08:26;;;;;;;5.00;3.78;;;;;;;18.89;47.33;95306.53;4981496;28;20072;-70
2021/09/10 04:10:52;;;;;;;6.47;4.28;;;;;;;18.64;47.46;95311.19;4971478;28;20030;-70
2021/09/10 04:13:17;;;;;;;7.82;4.35;;;;;;;18.38;48.22;95305.22;4986516;28;20109;-70
2021/09/10 04:15:42;;;;;;;8.55;4.57;;;;;;;18.34;48.74;95316.69;4986558;28;20046;-70
2021/09/10 04:18:08;;;;;;;7.03;4.28;;;;;;;18.71;47.80;95310.22;4973302;28;20138;-70
2021/09/10 04:20:34;;;;;;;6.97;4.70;;;;;;;18.60;47.94;95311.91;4986157;28;20443;-69
2021/09/10 04:23:00;;;;;;;8.73;4.57;;;;;;;18.41;48.21;95303.91;4952240;28;20053;-69
2021/09/10 04:25:25;;;;;;;6.75;4.40;;;;;;;18.40;48.32;95313.91;4984864;28;20034;-69
2021/09/10 04:27:51;;;;;;;7.90;4.50;;;;;;;18.43;48.48;95299.94;4984221;28;20120;-70
2021/09/10 04:30:16;;;;;;;6.65;4.40;;;;;;;18.44;48.22;95306.16;4986604;28;20500;-70
2021/09/10 04:32:42;;;;;;;6.82;4.50;;;;;;;18.23;48.78;95316.47;4968112;28;20582;-70
2021/09/10 04:35:07;;;;;;;6.30;4.28;;;;;;;18.22;48.92;95317.50;4950868;28;20035;-70
2021/09/10 04:37:33;;;;;;;7.65;4.63;;;;;;;17.83;50.10;95315.25;4981229;28;20034;-69
2021/09/10 04:40:00;;;;;;;7.03;4.95;;;;;;;17.34;50.88;95312.69;4977863;28;20492;-69
2021/09/10 04:42:26;;;;;;;8.60;5.00;;;;;;;17.48;50.75;95324.06;4979808;28;20030;-69
2021/09/10 04:44:51;;;;;;;10.90;5.10;;;;;;;16.63;53.43;95322.00;4963023;28;20034;-69
2021/09/10 04:47:17;;;;;;;6.15;4.75;;;;;;;17.28;51.59;95325.97;4979915;28;20042;-70
2021/09/10 04:49:42;;;;;;;7.47;4.88;;;;;;;17.79;50.03;95316.75;4979609;28;20557;-70
2021/09/10 04:52:08;;;;;;;6.15;4.60;;;;;;;17.71;50.52;95317.91;4978742;28;20559;-70
2021/09/10 04:54:33;;;;;;;6.95;4.63;;;;;;;18.04;49.92;95313.06;4979104;28;20415;-70
2021/09/10 04:56:59;;;;;;;7.60;5.15;;;;;;;17.66;50.46;95317.78;4979287;28;20037;-70
2021/09/10 04:59:24;;;;;;;7.13;4.80;;;;;;;17.86;49.77;95319.38;4980320;28;20066;-70
2021/09/10 05:01:49;;;;;;;8.40;4.28;;;;;;;17.95;49.71;95317.97;4981723;28;20046;-70
2021/09/10 05:04:15;;;;;;;8.43;5.20;;;;;;;17.26;51.81;95329.94;4980503;28;20042;-69
2021/09/10 05:06:40;;;;;;;7.28;4.35;;;;;;;17.40;51.33;95326.03;4946585;28;20491;-69
2021/09/10 05:09:06;;;;;;;5.70;4.63;;;;;;;17.07;52.14;95327.28;4964531;28;20026;-69
2021/09/10 05:11:31;;;;;;;6.22;4.38;;;;;;;17.46;51.18;95326.97;4979331;28;20030;-69
2021/09/10 05:13:56;;;;;;;5.93;3.88;;;;;;;17.70;50.43;95318.13;4980469;28;20073;-69
2021/09/10 05:16:22;;;;;;;6.38;4.00;;;;;;;17.91;50.08;95320.31;4981093;28;20471;-69
2021/09/10 05:18:47;;;;;;;7.93;5.10;;;;;;;17.86;49.97;95322.06;4981478;28;20065;-69
2021/09/10 05:21:13;;;;;;;8.32;4.10;;;;;;;17.99;49.62;95331.81;4981961;28;20047;-69
2021/09/10 05:23:38;;;;;;;7.10;3.83;;;;;;;18.09;49.57;95333.91;4983003;28;20038;-70
2021/09/10 05:26:04;;;;;;;6.05;4.60;;;;;;;18.30;48.99;95330.66;4983371;28;20474;-70
2021/09/10 05:28:29;;;;;;;5.68;4.50;;;;;;;18.37;48.62;95333.22;4984486;28;20428;-70
2021/09/10 05:30:55;;;;;;;4.97;4.10;;;;;;;18.43;48.87;95331.47;4993138;28;20495;-70
2021/09/10 05:33:20;;;;;;;5.28;4.00;;;;;;;18.48;48.28;95331.56;4986104;28;20416;-70
2021/09/10 05:35:45;;;;;;;9.48;5.20;;;;;;;18.07;49.47;95336.00;4974442;28;20034;-70
2021/09/10 05:38:11;;;;;;;5.97;5.03;;;;;;;17.98;47.61;95330.97;4994300;28;20030;-68
2021/09/10 05:40:36;;;;;;;6.57;4.68;;;;;;;18.15;48.04;95331.09;4981466;28;20039;-69
2021/09/10 05:43:02;;;;;;;8.25;5.30;;;;;;;18.16;49.08;95340.81;4986275;28;20049;-69
2021/09/10 05:45:27;;;;;;;12.63;9.07;;;;;;;17.65;47.67;95351.16;5002845;28;20030;-69
2021/09/10 05:47:53;;;;;;;13.27;10.32;;;;;;;17.83;47.24;95346.72;4982668;28;20034;-70
2021/09/10 05:50:18;;;;;;;10.63;7.22;;;;;;;18.09;46.96;95342.00;4984410;28;20034;-69
2021/09/10 05:52:44;;;;;;;8.57;6.15;;;;;;;18.10;49.81;95346.31;4999416;28;20038;-69
2021/09/10 05:55:10;;;;;;;12.32;7.97;;;;;;;17.38;51.45;95349.63;4982254;28;20054;-69
2021/09/10 05:57:35;;;;;;;12.02;7.95;;;;;;;17.77;49.11;95354.69;5002836;28;20057;-69
2021/09/10 06:00:01;;;;;;;11.80;8.38;;;;;;;17.84;48.54;95346.50;5003243;28;20039;-71
2021/09/10 06:02:26;;;;;;;7.63;5.68;;;;;;;17.92;50.60;95350.78;5001771;28;20029;-68
2021/09/10 06:04:52;;;;;;;11.68;8.02;;;;;;;17.81;50.46;95355.03;5002512;28;20084;-69
2021/09/10 06:07:17;;;;;;;9.32;6.15;;;;;;;17.95;50.18;95354.88;4992231;28;20038;-70
2021/09/10 06:09:43;;;;;;;9.18;6.32;;;;;;;17.78;50.66;95360.91;5006044;28;20039;-69
2021/09/10 06:12:08;;;;;;;10.35;8.38;;;;;;;17.91;49.08;95354.50;5005649;28;20514;-69
2021/09/10 06:14:34;;;;;;;9.05;6.18;;;;;;;18.02;50.34;95353.69;4994533;28;20043;-69
2021/09/10 06:16:59;;;;;;;10.98;6.88;;;;;;;17.60;50.66;95361.75;5004968;28;20036;-69
2021/09/10 06:19:25;;;;;;;11.27;6.03;;;;;;;18.07;50.20;95357.56;4989449;28;20042;-69
2021/09/10 06:21:50;;;;;;;10.75;6.20;;;;;;;17.90;50.61;95355.56;4976014;28;20203;-69
2021/09/10 06:24:16;;;;;;;7.70;6.38;;;;;;;17.74;51.20;95371.28;4987754;28;20034;-69
2021/09/10 06:26:41;;;;;;;9.38;6.95;;;;;;;17.77;51.08;95375.38;4997331;28;20035;-69
2021/09/10 06:29:07;;;;;;;10.90;7.60;;;;;;;18.09;49.74;95364.38;4998040;28;20030;-68
2021/09/10 06:31:32;;;;;;;10.50;7.05;;;;;;;18.40;49.24;95366.97;4995201;28;20045;-69
2021/09/10 06:33:58;;;;;;;8.70;6.22;;;;;;;18.39;49.26;95371.53;4990922;28;20454;-78
2021/09/10 06:36:23;;;;;;;7.60;5.70;;;;;;;18.09;50.25;95366.25;4989105;28;20034;-78
2021/09/10 06:38:48;;;;;;;10.50;6.68;;;;;;;17.79;51.29;95376.00;4989041;28;20526;-78
2021/09/10 06:41:14;;;;;;;11.80;7.53;;;;;;;18.56;48.38;95373.53;4955011;28;20046;-78
2021/09/10 06:43:39;;;;;;;8.02;6.00;;;;;;;18.53;49.33;95377.50;4980236;28;20073;-78
2021/09/10 06:46:06;;;;;;;10.25;6.20;;;;;;;18.61;49.05;95383.63;4978479;28;20037;-78
2021/09/10 06:48:31;;;;;;;7.87;5.87;;;;;;;18.64;48.84;95375.91;4990408;28;20147;-78
2021/09/10 06:50:57;;;;;;;9.30;6.82;;;;;;;18.18;49.80;95375.59;4962580;28;20395;-78
2021/09/10 06:53:22;;;;;;;9.48;6.20;;;;;;;18.58;49.08;95379.53;4978220;28;20065;-78
2021/09/10 06:55:48;;;;;;;8.63;5.65;;;;;;;18.70;48.90;95379.53;4980496;28;20046;-78
2021/09/10 06:58:13;;;;;;;9.90;5.80;;;;;;;18.81;48.72;95367.91;4973102;28;20510;-78
2021/09/10 07:00:39;;;;;;;9.68;7.55;;;;;;;18.92;48.41;95373.50;4956512;28;20392;-78
2021/09/10 07:03:04;;;;;;;9.90;7.00;;;;;;;18.45;49.16;95372.47;4956585;28;20026;-78
2021/09/10 07:05:30;;;;;;;8.20;6.15;;;;;;;18.68;48.70;95374.38;4989263;28;20049;-78
2021/09/10 07:07:55;;;;;;;9.23;5.72;;;;;;;18.86;48.21;95377.97;4972042;28;20030;-77
2021/09/10 07:10:23;;;;;;;8.18;6.57;;;;;;;19.09;47.89;95378.97;4982992;28;20078;-78
2021/09/10 07:12:48;;;;;;;8.85;6.50;;;;;;;19.25;47.09;95385.50;4988508;28;20054;-78
2021/09/10 07:15:14;;;;;;;7.53;6.10;;;;;;;18.28;49.85;95383.94;4972196;28;20049;-78
2021/09/10 07:17:39;;;;;;;10.60;7.93;;;;;;;18.87;47.35;95386.88;4972626;28;20029;-77
2021/09/10 07:20:05;;;;;;;7.72;5.75;;;;;;;19.33;47.21;95387.03;4988746;28;20042;-78
2021/09/10 07:22:31;;;;;;;8.65;6.68;;;;;;;19.37;46.90;95390.09;4989024;28;20048;-78
2021/09/10 07:24:56;;;;;;;9.65;5.88;;;;;;;19.21;47.44;95387.03;4990697;28;20038;-79
2021/09/10 07:27:21;;;;;;;8.02;6.30;;;;;;;18.66;48.60;95397.22;4956145;28;20344;-78
2021/09/10 07:29:47;;;;;;;6.85;5.68;;;;;;;18.94;48.09;95392.97;4956870;28;20100;-78
2021/09/10 07:32:12;;;;;;;10.82;6.72;;;;;;;17.82;51.22;95398.94;4961737;28;20400;-78
2021/09/10 07:34:38;;;;;;;7.85;5.57;;;;;;;18.76;48.53;95402.84;4970668;28;20044;-79
2021/09/10 07:37:03;;;;;;;9.35;5.10;;;;;;;19.42;46.72;95399.09;4973561;28;20578;-78
2021/09/10 07:39:29;;;;;;;6.43;4.85;;;;;;;19.70;46.47;95408.25;4989070;28;20499;-78
2021/09/10 07:41:54;;;;;;;9.38;5.10;;;;;;;20.07;45.51;95409.72;4957359;28;20038;-78
2021/09/10 07:44:20;;;;;;;9.48;5.30;;;;;;;19.76;45.70;95403.75;4956417;28;20444;-79
2021/09/10 07:46:46;;;;;;;8.10;4.70;;;;;;;20.24;44.52;95406.22;4973585;28;20073;-79
2021/09/10 07:49:12;;;;;;;7.13;4.93;;;;;;;20.07;45.17;95406.19;4956558;28;20125;-78
2021/09/10 07:51:37;;;;;;;7.13;4.90;;;;;;;19.94;45.45;95412.69;4956325;28;20034;-78
2021/09/10 07:54:06;;;;;;;7.07;5.35;;;;;;;19.77;46.34;95415.38;4968793;28;20027;-78
2021/09/10 07:56:31;;;;;;;7.32;5.03;;;;;;;19.55;46.36;95419.56;4979498;28;20031;-79
2021/09/10 07:58:58;;;;;;;8.48;5.10;;;;;;;19.75;46.47;95418.31;4972307;28;20034;-78
2021/09/10 08:01:23;;;;;;;9.50;5.78;;;;;;;19.21;47.60;95416.72;4989430;28;20030;-78
2021/09/10 08:03:49;;;;;;;7.13;5.05;;;;;;;19.79;46.02;95418.66;4956511;28;20064;-78
2021/09/10 08:06:14;;;;;;;6.53;5.07;;;;;;;19.64;46.10;95425.41;4956608;28;20034;-78
2021/09/10 08:08:40;;;;;;;7.93;4.60;;;;;;;19.84;46.31;95427.69;4968795;28;20034;-78
2021/09/10 08:11:05;;;;;;;8.73;4.78;;;;;;;19.46;47.38;95434.50;4959792;28;20039;-78
2021/09/10 08:13:31;;;;;;;9.18;4.70;;;;;;;19.22;47.29;95429.16;4986361;28;20050;-78
2021/09/10 08:15:56;;;;;;;7.50;5.40;;;;;;;19.27;47.72;95428.44;4971339;28;20089;-78
2021/09/10 08:18:22;;;;;;;6.75;5.25;;;;;;;19.85;46.28;95428.47;4987595;28;20046;-78
2021/09/10 08:20:47;;;;;;;8.30;5.13;;;;;;;19.99;45.89;95426.34;4987866;28;20069;-78
2021/09/10 08:23:13;;;;;;;9.02;5.18;;;;;;;19.27;47.54;95426.59;4971389;28;20165;-79
2021/09/10 08:25:38;;;;;;;8.57;5.15;;;;;;;19.08;47.98;95431.28;4972359;28;20031;-78
2021/09/10 08:28:04;;;;;;;7.65;5.47;;;;;;;18.38;49.51;95434.56;4988673;28;20041;-77
2021/09/10 08:30:30;;;;;;;9.60;5.43;;;;;;;18.81;48.52;95435.31;4971383;28;20030;-78
2021/09/10 08:32:55;;;;;;;6.93;5.30;;;;;;;18.75;48.87;95438.94;4988006;28;20030;-78
2021/09/10 08:35:21;;;;;;;7.45;5.10;;;;;;;19.40;47.58;95438.16;4955509;28;20042;-78
2021/09/10 08:37:47;;;;;;;8.00;6.00;;;;;;;19.29;47.59;95435.28;4972189;28;20023;-78
2021/09/10 08:40:12;;;;;;;7.60;4.90;;;;;;;19.71;46.68;95438.75;4969213;28;20597;-78
2021/09/10 08:42:38;;;;;;;8.45;5.10;;;;;;;19.76;46.28;95448.84;4969337;28;20038;-78
2021/09/10 08:45:04;;;;;;;10.38;4.90;;;;;;;19.55;47.01;95443.84;4970684;28;20569;-78
2021/09/10 08:47:30;;;;;;;8.75;5.22;;;;;;;19.50;46.66;95449.16;4970920;28;20137;-78
2021/09/10 08:49:55;;;;;;;8.00;5.00;;;;;;;19.30;47.30;95453.09;4953015;28;20632;-79
2021/09/10 08:52:22;;;;;;;8.75;5.55;;;;;;;18.82;48.25;95455.81;4965865;28;20161;-79
2021/09/10 08:54:47;;;;;;;9.02;5.50;;;;;;;18.55;49.68;95467.03;4972030;28;20099;-79
2021/09/10 08:57:13;;;;;;;7.90;4.95;;;;;;;19.54;46.28;95453.03;4971440;28;20149;-78
2021/09/10 08:59:38;;;;;;;7.35;4.90;;;;;;;19.51;46.51;95452.69;4962068;28;20166;-80
2021/09/10 09:02:04;;;;;;;6.47;4.93;;;;;;;20.12;45.53;95446.81;4950191;28;20100;-79
2021/09/10 09:04:34;;;;;;;5.90;4.30;;;;;;;20.82;44.31;95446.59;4970860;28;20506;-79
2021/09/10 09:07:01;;;;;;;5.68;5.00;;;;;;;21.62;41.42;95445.47;4966203;28;20070;-79
2021/09/10 09:09:52;;;;;;;5.55;4.72;;;;;;;21.78;41.41;95453.75;4972629;28;20034;-78
2021/09/10 09:12:23;;;;;;;8.95;4.80;;;;;;;21.64;41.52;95450.63;4976855;28;20054;-78
2021/09/10 09:15:04;;;;;;;6.82;4.40;;;;;;;22.92;39.51;95449.34;4957870;28;20042;-78
2021/09/10 09:17:30;;;;;;;6.80;4.28;;;;;;;23.36;38.21;95450.16;4993760;28;20443;-78
2021/09/10 09:20:12;;;;;;;6.40;4.30;;;;;;;23.02;38.96;95442.38;4979188;28;20046;-79
2021/09/10 09:22:53;;;;;;;6.53;4.05;;;;;;;22.62;39.72;95442.66;4971650;28;20044;-79
2021/09/10 09:25:19;;;;;;;6.38;4.30;;;;;;;23.00;39.21;95441.78;4963476;28;20027;-78
2021/09/10 09:27:44;;;;;;;5.68;4.25;;;;;;;23.07;38.33;95447.00;4938876;28;20574;-79
2021/09/10 09:30:09;;;;;;;6.13;4.18;;;;;;;23.27;37.78;95451.75;4953623;29;20062;-79
2021/09/10 09:32:50;;;;;;;6.97;3.88;;;;;;;23.39;37.74;95449.63;4972245;28;20039;-79
2021/09/10 09:35:18;;;;;;;5.78;3.92;;;;;;;22.48;39.96;95453.09;4953039;28;20046;-79
2021/09/10 09:37:43;;;;;;;6.70;4.25;;;;;;;23.47;38.00;95451.03;4941064;28;20619;-78
2021/09/10 09:40:09;;;;;;;6.28;4.00;;;;;;;23.64;37.30;95455.41;4970048;28;20074;-79
2021/09/10 09:42:35;;;;;;;9.80;4.53;;;;;;;22.62;38.70;95448.09;4993365;28;20050;-79
2021/09/10 09:45:09;;;;;;;6.78;4.70;;;;;;;21.90;40.93;95450.91;4992568;28;20034;-79
2021/09/10 09:47:35;;;;;;;5.25;3.83;;;;;;;21.90;40.96;95454.44;4975244;28;20042;-78
2021/09/10 09:50:06;;;;;;;6.32;3.88;;;;;;;22.69;39.66;95452.44;4976119;28;20038;-78
2021/09/10 09:52:31;;;;;;;5.25;3.45;;;;;;;22.31;40.19;95453.22;4991347;28;20034;-79
2021/09/10 09:54:57;;;;;;;5.97;4.00;;;;;;;22.63;39.56;95457.03;4992563;28;20039;-79
2021/09/10 09:57:22;;;;;;;5.32;3.40;;;;;;;22.27;40.72;95457.53;4975103;28;20042;-79
2021/09/10 09:59:48;;;;;;;7.15;3.92;;;;;;;23.42;37.64;95459.16;4958708;28;20135;-79
2021/09/10 10:02:13;;;;;;;3.80;3.20;;;;;;;23.33;37.33;95450.69;4956152;28;20528;-80
2021/09/10 10:04:38;;;;;;;5.05;3.60;;;;;;;23.16;37.57;95456.31;4981831;28;20109;-79
2021/09/10 10:07:04;;;;;;;4.75;3.33;;;;;;;22.33;39.40;95464.63;4971125;28;20162;-79
2021/09/10 10:09:29;;;;;;;6.00;3.17;;;;;;;21.81;40.20;95461.38;4971604;28;20034;-79
2021/09/10 10:11:58;;;;;;;5.07;3.33;;;;;;;22.87;38.36;95457.47;4942071;28;20481;-79
2021/09/10 10:14:32;;;;;;;5.03;3.70;;;;;;;23.20;38.31;95449.28;4972517;28;20022;-80
2021/09/10 10:16:59;;;;;;;10.95;4.20;;;;;;;22.67;39.28;95460.84;4973321;28;20103;-78
2021/09/10 10:19:25;;;;;;;5.75;4.20;;;;;;;22.20;40.39;95465.06;4989648;28;20042;-79
2021/09/10 10:22:03;;;;;;;7.05;3.80;;;;;;;22.73;39.40;95465.25;4991607;28;20034;-79
2021/09/10 10:24:46;;;;;;;8.77;3.83;;;;;;;22.99;38.17;95464.59;4939037;28;20090;-79
2021/09/10 10:27:40;;;;;;;4.53;3.70;;;;;;;23.24;38.74;95463.94;4951423;28;20046;-79
2021/09/10 10:30:18;;;;;;;5.97;3.63;;;;;;;23.27;37.71;95457.16;4959273;28;20038;-79
2021/09/10 10:32:53;;;;;;;6.93;3.42;;;;;;;22.70;38.03;95454.09;4972332;28;20074;-79
2021/09/10 10:35:37;;;;;;;5.30;3.65;;;;;;;21.99;40.17;95456.75;4971284;28;20042;-79
2021/09/10 10:38:07;;;;;;;4.82;3.22;;;;;;;21.68;39.97;95465.31;4972320;28;20023;-79
2021/09/10 10:40:37;;;;;;;7.85;3.30;;;;;;;21.99;39.80;95457.53;4950845;28;20038;-78
2021/09/10 10:43:05;;;;;;;5.22;3.08;;;;;;;22.40;39.54;95448.97;4958798;28;20045;-79
2021/09/10 10:45:57;;;;;;;4.70;3.28;;;;;;;21.25;41.54;95448.81;4953358;28;20088;-78
2021/09/10 10:48:34;;;;;;;4.25;3.25;;;;;;;22.08;40.72;95448.94;4971048;28;20560;-79
2021/09/10 10:51:04;;;;;;;5.22;3.45;;;;;;;22.43;39.49;95444.91;4970533;28;20035;-78
2021/09/10 10:53:44;;;;;;;9.07;4.53;;;;;;;22.77;38.47;95441.09;4951320;29;20484;-78
2021/09/10 10:56:22;;;;;;;5.47;3.50;;;;;;;23.30;37.07;95434.94;4959980;28;20046;-79
2021/09/10 10:59:12;;;;;;;4.38;3.20;;;;;;;23.56;36.90;95426.88;4968292;28;20031;-79
2021/09/10 11:02:20;;;;;;;7.93;3.10;;;;;;;23.88;35.64;95425.06;4973179;28;20428;-79
2021/09/10 11:04:49;;;;;;;5.43;3.03;;;;;;;24.55;35.50;95429.78;4967683;28;20098;-79
2021/09/10 11:07:24;;;;;;;4.90;3.40;;;;;;;24.55;35.52;95418.91;4969497;28;20038;-79
2021/09/10 11:10:18;;;;;;;5.93;3.13;;;;;;;24.84;34.52;95419.13;4953219;28;20090;-78
2021/09/10 11:12:46;;;;;;;4.30;2.90;;;;;;;23.94;36.54;95418.56;4961950;28;20712;-79
2021/09/10 11:15:24;;;;;;;6.05;3.00;;;;;;;24.20;35.64;95413.97;4953209;28;20038;-77
2021/09/10 11:17:55;;;;;;;5.55;3.05;;;;;;;24.06;35.82;95421.03;4948500;28;20484;-77
2021/09/10 11:20:25;;;;;;;5.82;3.22;;;;;;;23.12;36.93;95409.81;4951094;28;20397;-78
2021/09/10 11:22:50;;;;;;;4.32;3.40;;;;;;;23.39;38.20;95408.88;4952763;28;20050;-77
2021/09/10 11:25:16;;;;;;;5.57;3.10;;;;;;;23.59;37.20;95412.75;4970082;28;20042;-77
2021/09/10 11:27:41;;;;;;;3.80;3.10;;;;;;;23.55;37.73;95407.03;4968643;28;20034;-77
2021/09/10 11:30:08;;;;;;;4.38;3.03;;;;;;;22.41;39.65;95415.34;4968231;28;20055;-76